createdAt,value
2022-12-06T00:02:50.087Z,100256.47
2022-12-06T00:07:54.572Z,100260.59
2022-12-06T00:12:57.735Z,100258.56
2022-12-06T00:23:04.445Z,100240.03
2022-12-06T00:28:07.223Z,100234.50
2022-12-06T00:33:09.932Z,100243.69
2022-12-06T00:38:14.055Z,100234.63
2022-12-06T00:43:16.800Z,100242.03
2022-12-06T00:48:19.563Z,100238.59
2022-12-06T00:53:24.485Z,100243.00
2022-12-06T00:58:27.449Z,100242.16
2022-12-06T01:03:34.953Z,100238.38
2022-12-06T01:08:40.375Z,100234.91
2022-12-06T01:13:43.874Z,100238.72
2022-12-06T01:18:47.748Z,100236.75
2022-12-06T01:23:54.178Z,100223.28
2022-12-06T01:28:58.360Z,100215.41
2022-12-06T01:34:01.142Z,100220.06
2022-12-06T01:39:10.275Z,100224.59
2022-12-06T01:44:41.506Z,100222.97
2022-12-06T01:49:47.012Z,100229.13
2022-12-06T01:54:51.349Z,100227.41
2022-12-06T01:59:54.295Z,100219.31
2022-12-06T02:04:58.932Z,100214.88
2022-12-06T02:10:04.039Z,100216.63
2022-12-06T02:15:07.766Z,100208.63
2022-12-06T02:20:27.828Z,100206.78
2022-12-06T02:26:00.281Z,100195.41
2022-12-06T02:31:12.240Z,100194.53
2022-12-06T02:36:22.977Z,100190.97
2022-12-06T02:41:31.425Z,100187.53
2022-12-06T02:46:38.373Z,100190.13
2022-12-06T02:51:42.016Z,100179.34
2022-12-06T02:56:45.075Z,100177.50
2022-12-06T03:01:53.717Z,100170.38
2022-12-06T03:07:13.200Z,100166.94
2022-12-06T03:12:25.670Z,100167.78
2022-12-06T03:17:38.642Z,100163.50
2022-12-06T03:22:48.421Z,100152.72
2022-12-06T03:27:54.560Z,100145.63
2022-12-06T03:32:59.088Z,100143.53
2022-12-06T03:38:12.705Z,100130.94
2022-12-06T03:43:16.470Z,100122.63
2022-12-06T03:48:23.896Z,100117.84
2022-12-06T03:53:27.276Z,100117.97
2022-12-06T03:58:30.012Z,100116.72
2022-12-06T04:03:34.495Z,100115.56
2022-12-06T04:08:38.214Z,100116.34
2022-12-06T04:13:41.151Z,100118.41
2022-12-06T04:18:45.354Z,100107.97
2022-12-06T04:23:50.210Z,100099.16
2022-12-06T04:29:11.697Z,100098.72
2022-12-06T04:34:33.729Z,100095.19
2022-12-06T04:39:36.750Z,100082.06
2022-12-06T04:44:39.656Z,100088.00
2022-12-06T04:49:43.845Z,100093.91
2022-12-06T04:54:47.102Z,100089.84
2022-12-06T04:59:51.120Z,100089.50
2022-12-06T05:04:55.254Z,100096.91
2022-12-06T05:09:58.452Z,100097.25
2022-12-06T05:15:01.500Z,100095.94
2022-12-06T05:20:07.209Z,100098.88
2022-12-06T05:25:11.136Z,100099.19
2022-12-06T05:30:14.488Z,100097.03
2022-12-06T05:35:18.817Z,100092.94
2022-12-06T05:40:21.636Z,100095.63
2022-12-06T05:45:24.823Z,100096.91
2022-12-06T05:50:29.028Z,100095.28
2022-12-06T05:55:34.069Z,100092.16
2022-12-06T06:00:37.075Z,100089.47
2022-12-06T06:05:46.458Z,100096.25
2022-12-06T06:10:49.235Z,100093.66
2022-12-06T06:15:52.110Z,100093.94
2022-12-06T06:20:59.697Z,100102.19
2022-12-06T06:26:07.683Z,100100.69
2022-12-06T06:31:10.806Z,100099.94
2022-12-06T06:36:14.946Z,100095.72
2022-12-06T06:41:17.695Z,100102.84
2022-12-06T06:46:20.527Z,100101.50
2022-12-06T06:51:24.707Z,100098.38
2022-12-06T06:56:27.570Z,100097.53
2022-12-06T07:01:30.513Z,100094.16
2022-12-06T07:06:34.722Z,100092.19
2022-12-06T07:11:37.561Z,100093.72
2022-12-06T07:16:40.287Z,100088.75
2022-12-06T07:21:44.433Z,100085.22
2022-12-06T07:26:47.208Z,100093.16
2022-12-06T07:31:49.908Z,100086.38
2022-12-06T07:36:54.016Z,100089.06
2022-12-06T07:42:10.707Z,100088.59
2022-12-06T07:47:24.160Z,100084.38
2022-12-06T07:52:31.933Z,100093.22
2022-12-06T07:57:40.056Z,100087.06
2022-12-06T08:02:46.040Z,100089.13
2022-12-06T08:07:50.249Z,100085.63
2022-12-06T08:12:53.040Z,100084.69
2022-12-06T08:17:55.893Z,100086.47
2022-12-06T08:23:00.098Z,100095.41
2022-12-06T08:28:03.210Z,100094.81
2022-12-06T08:33:06.109Z,100088.91
2022-12-06T08:38:10.380Z,100090.34
2022-12-06T08:43:13.163Z,100089.69
2022-12-06T08:48:15.916Z,100096.34
2022-12-06T08:53:20.050Z,100110.66
2022-12-06T08:58:22.813Z,100120.59
2022-12-06T09:03:26.560Z,100125.00
2022-12-06T09:08:31.354Z,100112.75
2022-12-06T09:13:34.620Z,100118.78
2022-12-06T09:18:37.645Z,100110.88
2022-12-06T09:23:42.013Z,100110.22
2022-12-06T09:28:49.271Z,100113.72
2022-12-06T09:33:52.745Z,100120.00
2022-12-06T09:39:01.095Z,100117.78
2022-12-06T09:44:20.406Z,100104.91
2022-12-06T09:49:37.654Z,100093.88
2022-12-06T09:55:00.314Z,100094.75
2022-12-06T10:00:11.845Z,100086.75
2022-12-06T10:05:28.839Z,100078.91
2022-12-06T10:10:47.563Z,100074.84
2022-12-06T10:16:02.898Z,100060.91
2022-12-06T10:21:18.580Z,100047.88
2022-12-06T10:26:30.725Z,100044.66
2022-12-06T10:31:44.584Z,100037.16
2022-12-06T10:36:59.897Z,100033.41
2022-12-06T10:42:12.736Z,100032.34
2022-12-06T10:47:20.712Z,100036.75
2022-12-06T10:52:35.884Z,100031.38
2022-12-06T10:57:47.232Z,100034.91
2022-12-06T11:02:58.275Z,100036.66
2022-12-06T11:08:08.561Z,100036.31
2022-12-06T11:13:21.100Z,100036.03
2022-12-06T11:18:26.621Z,100032.28
2022-12-06T11:23:39.765Z,100028.31
2022-12-06T11:28:49.341Z,100035.19
2022-12-06T11:33:52.394Z,100024.13
2022-12-06T11:38:55.166Z,100029.19
2022-12-06T11:43:59.685Z,100026.31
2022-12-06T11:49:15.036Z,100025.34
2022-12-06T11:54:25.408Z,100022.72
2022-12-06T11:59:31.905Z,100009.41
2022-12-06T12:04:37.581Z,100005.97
2022-12-06T12:09:49.643Z,100003.47
2022-12-06T12:14:58.061Z,100006.41
2022-12-06T12:20:05.208Z,100000.47
2022-12-06T12:25:25.424Z,99997.13
2022-12-06T12:30:37.382Z,99996.38
2022-12-06T12:35:42.207Z,99991.19
2022-12-06T12:40:48.677Z,99987.66
2022-12-06T12:46:18.734Z,99984.44
2022-12-06T12:51:27.782Z,99985.38
2022-12-06T12:56:34.050Z,99986.47
2022-12-06T13:01:41.539Z,99983.13
2022-12-06T13:06:49.790Z,99978.84
2022-12-06T13:11:58.703Z,99978.06
2022-12-06T13:17:08.494Z,99972.91
2022-12-06T13:22:20.028Z,99973.09
2022-12-06T13:27:24.789Z,99967.84
2022-12-06T13:32:34.155Z,99968.91
2022-12-06T13:37:43.223Z,99969.00
2022-12-06T13:42:46.884Z,99966.53
2022-12-06T13:47:51.975Z,99970.16
2022-12-06T13:53:01.999Z,99967.81
2022-12-06T13:58:49.589Z,99974.13
2022-12-06T14:03:57.680Z,99966.06
2022-12-06T14:09:00.639Z,99967.56
2022-12-06T14:14:08.799Z,99967.25
2022-12-06T14:19:19.735Z,99970.53
2022-12-06T14:24:27.572Z,99965.06
2022-12-06T14:29:30.830Z,99968.75
2022-12-06T14:34:36.798Z,99978.97
2022-12-06T14:39:40.099Z,99984.78
2022-12-06T14:44:49.204Z,99978.13
2022-12-06T14:50:13.003Z,99979.72
2022-12-06T14:55:19.450Z,99991.56
2022-12-06T15:00:27.415Z,99993.50
2022-12-06T15:05:34.215Z,99990.59
2022-12-06T15:10:37.063Z,100001.22
2022-12-06T15:15:41.949Z,99994.00
2022-12-06T15:20:47.216Z,99996.50
2022-12-06T15:25:50.182Z,99984.47
2022-12-06T15:30:54.432Z,99982.22
2022-12-06T15:35:59.234Z,99974.09
2022-12-06T15:41:01.985Z,99986.34
2022-12-06T15:46:05.820Z,99984.16
2022-12-06T15:51:20.181Z,99978.53
2022-12-06T15:56:28.213Z,99987.31
2022-12-06T16:01:38.018Z,99983.03
2022-12-06T16:06:45.800Z,99986.00
2022-12-06T16:11:48.804Z,99986.53
2022-12-06T16:16:51.683Z,99978.97
2022-12-06T16:21:58.647Z,99988.53
2022-12-06T16:27:01.625Z,99994.44
2022-12-06T16:32:04.474Z,99996.91
2022-12-06T16:37:11.160Z,99987.88
2022-12-06T16:42:13.997Z,99993.13
2022-12-06T16:47:16.824Z,99991.16
2022-12-06T16:52:21.162Z,99990.19
2022-12-06T16:57:24.158Z,99982.13
2022-12-06T17:02:29.093Z,99990.97
2022-12-06T17:07:34.528Z,99996.50
2022-12-06T17:12:37.454Z,99998.13
2022-12-06T17:17:40.296Z,99986.88
2022-12-06T17:22:44.872Z,99983.19
2022-12-06T17:27:47.733Z,99982.72
2022-12-06T17:32:50.469Z,99990.72
2022-12-06T17:37:54.825Z,99987.03
2022-12-06T17:43:00.467Z,99989.50
2022-12-06T17:48:03.290Z,99992.31
2022-12-06T17:53:07.626Z,99995.13
2022-12-06T17:58:10.427Z,99989.09
2022-12-06T18:03:13.309Z,99994.28
2022-12-06T18:08:17.464Z,99994.63
2022-12-06T18:13:20.364Z,100001.72
2022-12-06T18:18:23.137Z,99997.19
2022-12-06T18:23:27.482Z,99998.91
2022-12-06T18:28:30.282Z,100009.59
2022-12-06T18:33:34.293Z,100005.06
2022-12-06T18:38:38.501Z,100011.38
2022-12-06T18:43:42.075Z,100008.69
2022-12-06T18:48:46.663Z,100015.69
2022-12-06T18:53:52.026Z,100015.56
2022-12-06T18:58:54.854Z,100015.44
2022-12-06T19:04:00.633Z,100011.81
2022-12-06T19:09:07.254Z,100002.97
2022-12-06T19:14:10.359Z,100011.03
2022-12-06T19:19:17.024Z,100011.56
2022-12-06T19:24:23.159Z,100001.63
2022-12-06T19:29:26.821Z,100000.56
2022-12-06T19:34:30.418Z,100011.56
2022-12-06T19:39:34.556Z,100009.97
2022-12-06T19:44:37.447Z,99998.94
2022-12-06T19:49:40.329Z,99995.25
2022-12-06T19:54:45.129Z,100006.59
2022-12-06T19:59:47.968Z,100004.53
2022-12-06T20:04:51.013Z,100000.84
2022-12-06T20:09:55.283Z,99992.75
2022-12-06T20:14:58.042Z,99993.00
2022-12-06T20:20:02.099Z,99990.19
2022-12-06T20:25:07.525Z,99991.06
2022-12-06T20:30:11.394Z,99987.03
2022-12-06T20:35:14.253Z,99989.94
2022-12-06T20:40:18.721Z,99983.59
2022-12-06T20:45:21.533Z,99984.69
2022-12-06T20:50:24.617Z,99985.66
2022-12-06T20:55:28.757Z,99989.84
2022-12-06T21:00:33.144Z,99986.28
2022-12-06T21:05:36.160Z,99980.91
2022-12-06T21:11:00.024Z,99985.91
2022-12-06T21:16:05.028Z,99982.13
2022-12-06T21:21:08.207Z,99986.53
2022-12-06T21:26:12.874Z,99987.28
2022-12-06T21:31:15.791Z,99985.19
2022-12-06T21:36:18.644Z,99983.22
2022-12-06T21:41:23.330Z,99987.88
2022-12-06T21:46:27.684Z,99979.91
2022-12-06T21:51:32.268Z,99988.75
2022-12-06T21:56:38.147Z,99983.13
2022-12-06T22:01:40.960Z,99991.09
2022-12-06T22:06:43.853Z,99985.81
2022-12-06T22:11:48.076Z,99979.66
2022-12-06T22:16:51.162Z,99979.78
2022-12-06T22:21:55.579Z,99984.09
2022-12-06T22:26:59.714Z,99983.00
2022-12-06T22:32:02.475Z,99983.34
2022-12-06T22:37:05.325Z,99976.97
2022-12-06T22:42:09.453Z,99978.97
2022-12-06T22:47:12.404Z,99979.94
2022-12-06T22:52:15.260Z,99973.06
2022-12-06T22:57:19.370Z,99968.66
2022-12-06T23:02:22.344Z,99972.94
2022-12-06T23:07:25.181Z,99969.50
2022-12-06T23:12:29.441Z,99966.81
2022-12-06T23:17:32.246Z,99962.28
2022-12-06T23:22:35.133Z,99957.16
2022-12-06T23:27:39.287Z,99949.06
2022-12-06T23:32:42.008Z,99945.38
2022-12-06T23:37:44.845Z,99936.31
2022-12-06T23:42:48.938Z,99934.69
2022-12-06T23:47:51.701Z,99946.97
2022-12-06T23:52:54.542Z,99943.19
2022-12-06T23:57:58.673Z,99938.75
